KFYV/FYV METAR and TAF weather

Enter ICAO airport designator
Station Type Date Time Source
KFYV METAR 2021/09/20 03:53 UTC NOAA

KFYV 200353Z AUTO 15004KT 10SM CLR 23/20 A2993 RMK AO2 SLP121 T02330200


Station Type Date Time Source
KFYV Decoded METAR 2021/09/20 03:53 UTC NOAA

FAYETTEVILLE DRAKE FIELD, AR, United States (KFYV) 36-00N 94-10W 379M
Sep 19, 2021 - 11:53 PM EDT / 2021.09.20 0353 UTC
Wind: from the SSE (150 degrees) at 5 MPH (4 KT):0
Visibility: 10 mile(s):0
Sky conditions: clear
Temperature: 73.9 F (23.3 C)
Dew Point: 68.0 F (20.0 C)
Relative Humidity: 81%
Pressure (altimeter): 29.93 in. Hg (1013 hPa)
ob: KFYV 200353Z AUTO 15004KT 10SM CLR 23/20 A2993 RMK AO2 SLP121 T02330200
cycle: 4

Station Type Date Time Source
KFYV TAF 2021/09/19 18:22 UTC NOAA

TAF KFYV 191720Z 1918/2018 13006KT P6SM BKN040
FM200100 16003KT P6SM SKC
FM200900 18005KT P6SM SKC
TEMPO 2009/2013 4SM BR BKN015
FM201400 19011G18KT P6SM SCT040

Example: see airport list